Time;durP1;ratioP1;P1;durP2;ratioP2;P2;SDS_P1;SDS_P2;PMS_P1;PMS_P2;Temp;Humidity;BMP_temperature;BMP_pressure;BME280_temperature;BME280_humidity;BME280_pressure;Samples;Min_cycle;Max_cycle;Signal;HPM_P1;HPM_P2
2022/01/31 00:02:11;;;;;;;23.35;5.45;;;3.90;99.90;;;;;;4902011;29;20044;-80
2022/01/31 00:04:37;;;;;;;19.77;4.97;;;3.90;99.90;;;;;;4902584;29;20055;-81
2022/01/31 00:07:04;;;;;;;14.50;4.65;;;3.90;99.90;;;;;;4885755;29;20044;-80
2022/01/31 00:09:30;;;;;;;20.05;5.13;;;3.90;99.90;;;;;;4901962;29;20044;-80
2022/01/31 00:12:07;;;;;;;15.27;4.50;;;3.90;99.90;;;;;;4907729;29;20123;-81
2022/01/31 00:16:59;;;;;;;15.95;4.40;;;3.80;99.90;;;;;;4917991;29;20044;-80
2022/01/31 00:19:25;;;;;;;23.17;5.63;;;3.80;99.90;;;;;;4902498;29;20076;-80
2022/01/31 00:21:51;;;;;;;15.90;4.20;;;3.80;99.90;;;;;;4902011;29;20099;-80
2022/01/31 00:24:17;;;;;;;17.27;4.60;;;3.80;99.90;;;;;;4900741;29;20461;-80
2022/01/31 00:26:42;;;;;;;22.25;4.60;;;3.80;99.90;;;;;;4885550;29;20047;-80
2022/01/31 00:29:08;;;;;;;17.95;4.82;;;3.90;99.90;;;;;;4917502;29;20103;-81
2022/01/31 00:31:34;;;;;;;22.33;5.10;;;3.80;99.90;;;;;;4916921;29;20115;-81
2022/01/31 00:33:59;;;;;;;17.05;4.63;;;3.90;99.90;;;;;;4917773;29;20040;-81
2022/01/31 00:36:25;;;;;;;19.25;4.70;;;3.90;99.90;;;;;;4901497;29;20032;-80
2022/01/31 00:38:51;;;;;;;14.93;4.07;;;3.90;99.90;;;;;;4901581;29;20048;-81
2022/01/31 00:41:16;;;;;;;23.87;4.47;;;3.90;99.90;;;;;;4886143;29;20088;-80
2022/01/31 00:43:45;;;;;;;16.70;3.95;;;3.90;99.90;;;;;;4886202;29;20303;-81
2022/01/31 00:46:12;;;;;;;19.23;4.35;;;3.90;99.90;;;;;;4917462;29;20055;-82
2022/01/31 00:48:45;;;;;;;19.10;4.35;;;3.90;99.90;;;;;;4901874;29;20065;-81
2022/01/31 00:51:10;;;;;;;16.77;4.68;;;3.90;99.90;;;;;;4917478;29;20103;-81
2022/01/31 00:53:37;;;;;;;15.50;4.50;;;4.00;99.90;;;;;;4902415;29;20488;-84
2022/01/31 00:56:03;;;;;;;;;;;3.90;99.90;;;;;;4917480;29;20064;-79
2022/01/31 00:58:30;;;;;;;16.38;4.72;;;3.90;99.90;;;;;;4917476;29;19919;-81
2022/01/31 01:00:55;;;;;;;23.90;5.78;;;3.90;99.90;;;;;;4901616;29;20187;-80
2022/01/31 01:03:21;;;;;;;19.87;5.07;;;3.90;99.90;;;;;;4917999;29;20055;-82
2022/01/31 01:05:47;;;;;;;9.50;3.70;;;3.90;99.90;;;;;;4917200;29;20292;-80
2022/01/31 01:08:12;;;;;;;19.93;5.30;;;3.90;99.90;;;;;;4917121;29;20311;-81
2022/01/31 01:10:38;;;;;;;17.73;6.10;;;3.80;99.90;;;;;;4901107;29;20284;-80
2022/01/31 01:13:04;;;;;;;21.83;5.88;;;3.80;99.90;;;;;;4901833;29;20113;-81
2022/01/31 01:15:30;;;;;;;21.42;6.90;;;3.80;99.90;;;;;;4890948;29;20092;-80
2022/01/31 01:17:56;;;;;;;20.23;6.57;;;3.80;99.90;;;;;;4905230;29;20043;-81
2022/01/31 01:20:21;;;;;;;21.20;7.13;;;3.90;99.90;;;;;;4916962;29;20119;-81
2022/01/31 01:22:47;;;;;;;22.08;6.63;;;3.90;99.90;;;;;;4901640;29;20111;-82
2022/01/31 01:25:14;;;;;;;19.63;6.90;;;3.80;99.90;;;;;;4917608;29;20140;-82
2022/01/31 01:27:42;;;;;;;16.42;6.22;;;3.80;99.90;;;;;;4886151;29;20040;-82
2022/01/31 01:30:10;;;;;;;19.90;7.15;;;3.80;99.90;;;;;;4900281;29;20040;-82
2022/01/31 01:32:46;;;;;;;17.80;7.45;;;3.70;99.90;;;;;;4917358;29;20040;-81
2022/01/31 01:35:13;;;;;;;18.80;7.30;;;3.80;99.90;;;;;;4902188;29;20036;-83
2022/01/31 01:37:38;;;;;;;21.05;7.97;;;3.80;99.90;;;;;;4917635;29;20044;-82
2022/01/31 01:40:05;;;;;;;23.50;8.63;;;3.70;99.90;;;;;;4917549;29;20051;-82
2022/01/31 01:42:31;;;;;;;23.50;9.27;;;3.80;99.90;;;;;;4901714;29;20464;-81
2022/01/31 01:44:56;;;;;;;17.20;7.30;;;3.60;99.90;;;;;;4901111;29;20043;-82
2022/01/31 01:47:24;;;;;;;19.80;9.65;;;3.70;99.90;;;;;;4917236;29;20040;-82
2022/01/31 01:49:51;;;;;;;18.80;9.32;;;3.60;99.90;;;;;;4917574;29;20052;-84
2022/01/31 01:52:18;;;;;;;22.55;10.45;;;3.50;99.90;;;;;;4901729;29;20048;-82
2022/01/31 01:54:45;;;;;;;;;;;3.60;99.90;;;;;;4902683;29;20036;-83
2022/01/31 01:57:10;;;;;;;19.73;9.60;;;3.60;99.90;;;;;;4887852;29;20361;-83
2022/01/31 01:59:38;;;;;;;21.63;10.18;;;3.50;99.90;;;;;;4896796;29;20037;-81
2022/01/31 02:02:05;;;;;;;17.92;9.85;;;3.50;99.90;;;;;;4901780;29;20075;-83
2022/01/31 02:04:32;;;;;;;21.95;10.07;;;3.40;99.90;;;;;;4886607;29;20275;-81
2022/01/31 02:06:58;;;;;;;22.52;10.10;;;3.30;99.90;;;;;;4916937;29;20048;-82
2022/01/31 02:09:26;;;;;;;20.15;9.70;;;3.30;99.90;;;;;;4900746;29;20388;-81
2022/01/31 02:11:56;;;;;;;19.58;9.77;;;3.40;99.90;;;;;;4900702;29;20052;-81
2022/01/31 02:14:25;;;;;;;18.50;10.40;;;3.20;99.90;;;;;;4903116;29;20112;-82
2022/01/31 02:16:52;;;;;;;16.30;9.77;;;3.20;99.90;;;;;;4899515;29;20037;-82
2022/01/31 02:19:18;;;;;;;17.10;10.00;;;3.30;99.90;;;;;;4901069;29;20048;-83
2022/01/31 02:21:44;;;;;;;;;;;3.20;99.90;;;;;;4902182;29;20052;-77
2022/01/31 02:24:12;;;;;;;15.50;9.23;;;3.10;99.90;;;;;;4933724;29;20363;-77
2022/01/31 02:26:38;;;;;;;19.20;8.77;;;2.90;99.90;;;;;;4916940;29;20488;-78
2022/01/31 02:29:05;;;;;;;12.43;7.72;;;3.00;99.90;;;;;;4915221;29;20100;-78
2022/01/31 02:31:31;;;;;;;12.85;8.15;;;3.00;99.90;;;;;;4918442;29;20044;-78
2022/01/31 02:33:57;;;;;;;14.15;8.45;;;2.80;99.90;;;;;;4902168;29;20099;-78
2022/01/31 02:36:22;;;;;;;14.50;9.57;;;2.70;99.90;;;;;;4886847;29;20040;-78
2022/01/31 02:38:48;;;;;;;14.00;8.90;;;2.80;99.90;;;;;;4912196;29;20048;-78
2022/01/31 02:41:13;;;;;;;14.20;8.90;;;2.80;99.90;;;;;;4921590;29;20892;-78
2022/01/31 02:43:39;;;;;;;11.37;8.60;;;2.70;99.90;;;;;;4909873;29;20892;-78
2022/01/31 02:46:05;;;;;;;11.75;8.25;;;2.80;99.90;;;;;;4888911;29;20347;-78
2022/01/31 02:48:34;;;;;;;11.90;8.50;;;2.70;99.90;;;;;;4902027;29;20036;-79
2022/01/31 02:51:00;;;;;;;15.95;9.23;;;2.90;99.90;;;;;;4917473;29;20051;-78
2022/01/31 02:53:29;;;;;;;14.85;9.40;;;2.70;99.90;;;;;;4898574;29;20488;-78
2022/01/31 02:55:57;;;;;;;13.45;9.15;;;2.90;99.90;;;;;;4916274;29;20048;-78
2022/01/31 02:58:25;;;;;;;12.93;9.07;;;2.80;99.90;;;;;;4926800;29;20487;-78
2022/01/31 03:00:52;;;;;;;12.77;9.20;;;2.90;99.90;;;;;;4917161;29;20044;-77
2022/01/31 03:03:18;;;;;;;16.38;9.65;;;2.90;99.90;;;;;;4901440;29;20040;-78
2022/01/31 03:05:44;;;;;;;12.13;9.13;;;3.10;99.90;;;;;;4886076;29;20476;-78
2022/01/31 03:08:10;;;;;;;15.45;9.10;;;3.10;99.90;;;;;;4886025;29;20052;-78
2022/01/31 03:10:36;;;;;;;12.70;8.23;;;3.00;99.90;;;;;;4915614;29;20052;-78
2022/01/31 03:13:02;;;;;;;11.05;8.00;;;3.20;99.90;;;;;;4916942;29;20068;-78
2022/01/31 03:15:28;;;;;;;8.63;6.60;;;3.40;99.90;;;;;;4918127;29;20051;-78
2022/01/31 03:17:54;;;;;;;13.18;7.13;;;3.30;99.90;;;;;;4902410;29;20044;-79
2022/01/31 03:20:23;;;;;;;11.23;7.13;;;3.50;99.90;;;;;;4918370;29;20504;-78
2022/01/31 03:22:49;;;;;;;9.65;6.20;;;3.40;99.90;;;;;;4901432;29;20036;-79
2022/01/31 03:25:15;;;;;;;10.35;6.07;;;3.40;99.90;;;;;;4917490;29;20115;-79
2022/01/31 03:27:41;;;;;;;;;;;3.50;99.90;;;;;;4902668;29;20055;-79
2022/01/31 03:30:10;;;;;;;8.88;5.40;;;3.90;99.90;;;;;;4901925;29;19919;-78
2022/01/31 03:32:36;;;;;;;6.00;4.25;;;3.70;99.90;;;;;;4884987;29;20047;-79
2022/01/31 03:35:02;;;;;;;7.53;4.28;;;3.80;99.90;;;;;;4885609;29;20456;-79
2022/01/31 03:37:28;;;;;;;6.97;4.13;;;3.90;99.90;;;;;;4887218;29;20051;-79
2022/01/31 03:39:54;;;;;;;9.15;4.60;;;3.90;99.90;;;;;;4918425;29;20487;-80
2022/01/31 03:42:20;;;;;;;10.63;4.68;;;4.30;99.90;;;;;;4902328;29;20040;-80
2022/01/31 03:44:47;;;;;;;11.27;4.38;;;4.20;99.90;;;;;;4901870;29;20139;-80
2022/01/31 03:47:16;;;;;;;17.35;4.07;;;4.30;99.90;;;;;;4902625;29;20492;-80
2022/01/31 03:49:42;;;;;;;14.80;3.50;;;4.50;99.90;;;;;;4903938;29;20146;-79
2022/01/31 03:52:08;;;;;;;14.60;3.70;;;4.90;99.90;;;;;;4902623;29;20040;-80
2022/01/31 03:54:34;;;;;;;28.95;4.65;;;4.90;99.90;;;;;;4882578;29;20048;-80
2022/01/31 03:56:59;;;;;;;21.50;4.05;;;5.10;99.90;;;;;;4911814;29;20036;-80
2022/01/31 03:59:25;;;;;;;26.33;3.60;;;5.40;99.90;;;;;;4897967;29;20045;-80
2022/01/31 04:01:51;;;;;;;18.98;3.75;;;5.40;99.90;;;;;;4897425;29;20046;-81
2022/01/31 04:04:17;;;;;;;27.88;4.72;;;5.40;99.90;;;;;;4887914;29;20183;-80
2022/01/31 04:06:43;;;;;;;17.63;3.40;;;5.60;99.90;;;;;;4887680;29;20075;-79
2022/01/31 04:09:09;;;;;;;19.15;2.90;;;5.60;99.90;;;;;;4888495;29;20052;-80
2022/01/31 04:11:35;;;;;;;15.60;3.15;;;5.50;99.90;;;;;;4887352;29;20036;-81
2022/01/31 04:14:00;;;;;;;14.40;2.72;;;5.50;99.90;;;;;;4887468;29;20425;-81
2022/01/31 04:16:26;;;;;;;10.10;2.20;;;5.30;99.90;;;;;;4887626;29;20036;-80
2022/01/31 04:18:52;;;;;;;18.85;2.75;;;5.20;99.90;;;;;;4901852;29;20103;-80
2022/01/31 04:21:18;;;;;;;13.43;2.20;;;5.20;99.90;;;;;;4886696;29;20076;-81
2022/01/31 04:23:46;;;;;;;16.05;2.90;;;5.20;99.90;;;;;;4902311;29;20055;-80
2022/01/31 04:26:14;;;;;;;15.95;3.38;;;5.20;99.90;;;;;;4892340;29;20056;-80
2022/01/31 04:28:50;;;;;;;10.98;2.47;;;5.40;99.90;;;;;;4901756;29;20115;-81
2022/01/31 04:33:49;;;;;;;12.02;1.90;;;5.30;99.90;;;;;;4902731;29;20040;-81
2022/01/31 04:36:15;;;;;;;12.02;2.05;;;5.20;99.90;;;;;;4902206;29;20040;-80
2022/01/31 04:38:42;;;;;;;13.77;1.73;;;5.10;99.90;;;;;;4901592;29;20183;-81
2022/01/31 04:41:08;;;;;;;;;;;5.10;99.90;;;;;;4901515;29;20099;-81
2022/01/31 04:43:33;;;;;;;13.18;2.58;;;5.10;99.90;;;;;;4902300;29;20006;-81
2022/01/31 04:46:02;;;;;;;17.05;2.72;;;5.10;99.90;;;;;;4885956;29;20421;-81
2022/01/31 04:48:27;;;;;;;17.50;2.58;;;5.20;99.90;;;;;;4901726;29;20423;-81
2022/01/31 04:50:54;;;;;;;15.40;2.92;;;5.10;99.90;;;;;;4886191;29;20056;-81
2022/01/31 04:53:20;;;;;;;17.63;2.50;;;5.10;99.90;;;;;;4902725;29;20103;-81
2022/01/31 04:55:46;;;;;;;16.05;2.53;;;5.10;99.90;;;;;;4916956;29;20048;-81
2022/01/31 04:58:11;;;;;;;14.93;2.45;;;5.10;99.90;;;;;;4886208;29;20083;-80
2022/01/31 05:00:38;;;;;;;13.43;2.20;;;5.00;99.90;;;;;;4901011;29;20056;-81
2022/01/31 05:03:10;;;;;;;17.33;2.90;;;5.20;99.90;;;;;;4900434;29;20090;-82
2022/01/31 05:05:35;;;;;;;17.25;2.80;;;5.20;99.90;;;;;;4900334;29;20051;-81
2022/01/31 05:08:01;;;;;;;27.77;3.60;;;5.10;99.90;;;;;;4885589;29;20051;-82
2022/01/31 05:10:27;;;;;;;18.85;3.15;;;5.20;99.90;;;;;;4885566;29;20102;-81
2022/01/31 05:12:52;;;;;;;14.38;2.70;;;5.20;99.90;;;;;;4885395;29;20074;-81
2022/01/31 05:15:18;;;;;;;9.82;2.22;;;5.30;99.90;;;;;;4885055;29;20036;-81
2022/01/31 05:17:44;;;;;;;8.05;1.55;;;5.40;99.90;;;;;;4886225;29;20104;-81
2022/01/31 05:20:10;;;;;;;8.70;1.60;;;5.20;99.90;;;;;;4885890;29;20052;-81
2022/01/31 05:22:36;;;;;;;9.98;1.75;;;5.20;99.90;;;;;;4901132;29;20051;-81
2022/01/31 05:25:01;;;;;;;9.93;1.55;;;5.10;99.90;;;;;;4886335;29;20055;-81
2022/01/31 05:27:27;;;;;;;10.40;1.80;;;5.10;99.90;;;;;;4900019;29;20044;-82
2022/01/31 05:29:53;;;;;;;9.50;1.40;;;5.00;99.90;;;;;;4901063;29;20127;-81
2022/01/31 05:32:18;;;;;;;6.95;1.45;;;4.90;99.90;;;;;;4886259;29;20099;-81
2022/01/31 05:34:44;;;;;;;7.78;1.70;;;4.80;99.90;;;;;;4901900;29;20094;-81
2022/01/31 05:37:10;;;;;;;12.57;1.70;;;4.90;99.90;;;;;;4885076;29;20043;-81
2022/01/31 05:39:36;;;;;;;8.32;1.60;;;4.80;99.90;;;;;;4885399;29;20112;-81
2022/01/31 05:42:01;;;;;;;10.88;1.70;;;4.70;99.90;;;;;;4901243;29;20084;-81
2022/01/31 05:44:27;;;;;;;7.75;1.20;;;4.80;99.90;;;;;;4900732;29;20051;-81
2022/01/31 05:46:53;;;;;;;12.80;1.52;;;4.80;99.90;;;;;;4885704;29;20100;-81
2022/01/31 05:49:19;;;;;;;12.13;1.88;;;4.70;99.90;;;;;;4915569;29;20043;-81
2022/01/31 05:52:01;;;;;;;11.82;1.30;;;4.70;99.90;;;;;;4900683;29;20044;-81
2022/01/31 05:54:28;;;;;;;12.38;1.20;;;4.70;99.90;;;;;;4915721;29;20036;-82
2022/01/31 05:56:55;;;;;;;9.23;1.15;;;4.80;99.90;;;;;;4901762;29;20052;-82
2022/01/31 05:59:21;;;;;;;7.05;1.40;;;4.70;99.90;;;;;;4895719;29;20039;-82
2022/01/31 06:01:46;;;;;;;11.18;1.40;;;4.70;99.90;;;;;;4922699;29;20455;-82
2022/01/31 06:04:12;;;;;;;11.82;1.98;;;4.80;99.90;;;;;;4891465;29;20035;-81
2022/01/31 06:06:38;;;;;;;9.50;1.98;;;4.60;99.90;;;;;;4922913;29;20055;-81
2022/01/31 06:09:04;;;;;;;9.55;1.50;;;4.80;99.90;;;;;;4908266;29;20064;-81
2022/01/31 06:11:33;;;;;;;9.77;1.20;;;4.90;99.90;;;;;;4909400;29;20387;-81
2022/01/31 06:14:00;;;;;;;14.00;2.20;;;4.90;99.90;;;;;;4893143;29;20043;-82
2022/01/31 06:16:30;;;;;;;7.75;1.70;;;4.80;99.90;;;;;;4907639;29;20130;-82
2022/01/31 06:18:56;;;;;;;9.32;1.35;;;4.80;99.90;;;;;;4907759;29;20052;-81
2022/01/31 06:21:22;;;;;;;;;;;4.80;99.90;;;;;;4907762;29;20071;-82
2022/01/31 06:23:47;;;;;;;10.30;1.42;;;4.80;99.90;;;;;;4907280;29;19962;-81
2022/01/31 06:26:13;;;;;;;7.15;1.65;;;4.90;99.90;;;;;;4892306;29;20039;-81
2022/01/31 06:28:40;;;;;;;9.02;1.98;;;4.70;99.90;;;;;;4907021;29;20040;-82
2022/01/31 06:31:06;;;;;;;9.82;1.92;;;5.00;99.90;;;;;;4907550;29;20044;-81
2022/01/31 06:33:32;;;;;;;9.60;1.50;;;4.80;99.90;;;;;;4891707;29;20040;-82
2022/01/31 06:35:59;;;;;;;12.82;1.90;;;4.80;99.90;;;;;;4918045;29;20040;-81
2022/01/31 06:38:25;;;;;;;10.77;1.95;;;4.70;99.90;;;;;;4905707;29;20039;-82
2022/01/31 06:40:51;;;;;;;9.48;1.63;;;4.90;99.90;;;;;;4891061;29;20099;-81
2022/01/31 06:43:17;;;;;;;11.40;1.55;;;4.90;99.90;;;;;;4922277;29;20134;-88
2022/01/31 06:45:42;;;;;;;11.63;2.00;;;4.70;99.90;;;;;;4907170;29;20036;-88
2022/01/31 06:48:08;;;;;;;10.18;1.77;;;5.00;99.90;;;;;;4891311;29;20568;-87
2022/01/31 06:50:34;;;;;;;11.07;2.13;;;5.00;99.90;;;;;;4890774;29;20048;-88
2022/01/31 06:53:01;;;;;;;12.05;1.77;;;5.10;99.90;;;;;;4907249;29;20048;-87
2022/01/31 06:55:29;;;;;;;8.27;1.95;;;5.00;99.90;;;;;;4922808;29;20024;-88
2022/01/31 06:57:56;;;;;;;10.82;1.60;;;5.10;99.90;;;;;;4907977;29;20130;-88
2022/01/31 07:00:22;;;;;;;8.38;1.88;;;5.20;99.90;;;;;;4906151;29;20518;-86
2022/01/31 07:02:49;;;;;;;9.20;1.63;;;5.10;99.90;;;;;;4886283;29;20447;-89
2022/01/31 07:05:16;;;;;;;11.07;1.45;;;5.00;99.90;;;;;;4906103;29;20144;-87
2022/01/31 07:07:43;;;;;;;7.63;1.73;;;5.00;99.90;;;;;;4904426;29;20040;-88
2022/01/31 07:10:10;;;;;;;7.93;1.23;;;5.20;99.90;;;;;;4918346;29;20098;-90
2022/01/31 07:12:39;;;;;;;8.52;1.40;;;5.20;99.90;;;;;;4895901;29;20048;-89
2022/01/31 07:15:08;;;;;;;7.43;1.25;;;5.10;99.90;;;;;;4901194;29;20115;-88
2022/01/31 07:17:35;;;;;;;7.88;1.42;;;5.00;99.90;;;;;;4902024;29;20140;-88
2022/01/31 07:20:10;;;;;;;6.80;1.13;;;5.10;99.90;;;;;;4886134;29;20095;-86
2022/01/31 07:22:39;;;;;;;10.30;1.63;;;4.90;99.90;;;;;;4911518;29;20413;-88
2022/01/31 07:25:09;;;;;;;10.65;1.50;;;4.90;99.90;;;;;;4884190;29;20063;-87
2022/01/31 07:27:36;;;;;;;15.75;2.20;;;4.90;99.90;;;;;;4887922;29;20048;-81
2022/01/31 07:30:05;;;;;;;9.10;1.38;;;4.90;99.90;;;;;;4917576;29;20040;-87
2022/01/31 07:32:32;;;;;;;8.18;1.77;;;5.10;99.90;;;;;;4919925;29;20047;-84
2022/01/31 07:34:58;;;;;;;9.25;1.85;;;5.00;99.90;;;;;;4904025;29;20177;-87
2022/01/31 07:37:25;;;;;;;12.35;2.17;;;5.00;99.90;;;;;;4902914;29;20036;-86
2022/01/31 07:39:51;;;;;;;7.63;1.70;;;5.10;99.90;;;;;;4904657;29;20043;-88
2022/01/31 07:42:19;;;;;;;7.93;1.45;;;5.10;99.90;;;;;;4904743;29;20071;-87
2022/01/31 07:44:45;;;;;;;10.02;1.40;;;4.90;99.90;;;;;;4904745;29;20047;-87
2022/01/31 07:47:11;;;;;;;8.90;1.42;;;5.10;99.90;;;;;;4903913;29;20040;-87
2022/01/31 07:49:36;;;;;;;10.55;1.67;;;5.00;99.90;;;;;;4912441;29;20036;-84
2022/01/31 07:52:03;;;;;;;7.43;1.10;;;4.90;99.90;;;;;;4879881;29;20124;-85
2022/01/31 07:54:29;;;;;;;5.82;1.35;;;4.90;99.90;;;;;;4902129;29;20107;-84
2022/01/31 07:56:57;;;;;;;7.28;1.33;;;5.00;99.90;;;;;;4896648;29;20569;-85
2022/01/31 07:59:23;;;;;;;6.82;1.25;;;4.80;99.90;;;;;;4902389;29;20084;-83
2022/01/31 08:01:49;;;;;;;8.05;1.25;;;4.90;99.90;;;;;;4899957;29;20051;-86
2022/01/31 08:04:15;;;;;;;6.50;1.08;;;4.70;99.90;;;;;;4900712;29;20403;-85
2022/01/31 08:06:40;;;;;;;6.75;1.10;;;4.80;99.90;;;;;;4918064;29;20036;-85
2022/01/31 08:09:06;;;;;;;5.72;0.95;;;4.90;99.90;;;;;;4909461;29;20052;-85
2022/01/31 08:11:34;;;;;;;4.78;1.50;;;4.60;99.90;;;;;;4896557;29;20044;-85
2022/01/31 08:14:05;;;;;;;7.25;1.35;;;4.80;99.90;;;;;;4885867;29;20135;-85
2022/01/31 08:16:36;;;;;;;7.20;1.50;;;4.80;99.90;;;;;;4886033;29;20076;-84
2022/01/31 08:19:05;;;;;;;6.50;1.23;;;4.90;99.90;;;;;;4925445;29;20108;-83
2022/01/31 08:21:31;;;;;;;7.13;0.90;;;5.00;99.90;;;;;;4885520;29;20146;-83
2022/01/31 08:23:57;;;;;;;;;;;4.90;99.90;;;;;;4914709;29;20044;-83
2022/01/31 08:26:22;;;;;;;8.50;1.30;;;5.20;99.90;;;;;;4879378;29;19971;-85
2022/01/31 08:29:29;;;;;;;6.30;1.27;;;5.00;99.90;;;;;;4897732;29;20044;-84
2022/01/31 08:31:41;;;;;;;6.25;1.10;;;5.10;99.90;;;;;;4905846;29;20068;-84
2022/01/31 08:36:43;;;;;;;7.47;1.70;;;5.10;99.90;;;;;;4912853;29;20077;-83
2022/01/31 08:39:22;;;;;;;8.32;1.48;;;5.10;99.90;;;;;;4895226;29;20055;-84
2022/01/31 08:41:51;;;;;;;10.05;1.40;;;5.10;99.90;;;;;;4903235;29;20052;-83
2022/01/31 08:44:19;;;;;;;4.35;1.00;;;5.20;99.90;;;;;;4899359;29;20046;-84
2022/01/31 08:46:47;;;;;;;5.75;1.45;;;5.20;99.90;;;;;;4897027;29;20239;-83
2022/01/31 08:49:14;;;;;;;10.60;1.80;;;5.40;99.90;;;;;;4908809;29;20072;-83
2022/01/31 08:51:41;;;;;;;9.77;1.52;;;5.40;99.90;;;;;;4898316;29;20048;-84
2022/01/31 08:54:07;;;;;;;5.50;1.13;;;5.40;99.90;;;;;;4907538;29;20067;-83
2022/01/31 08:56:40;;;;;;;8.10;1.48;;;5.40;99.90;;;;;;4918754;29;20047;-83
2022/01/31 08:59:12;;;;;;;9.13;1.10;;;5.40;99.90;;;;;;4895913;29;20040;-83
2022/01/31 09:01:38;;;;;;;7.43;1.10;;;5.60;99.90;;;;;;4916346;29;20087;-84
2022/01/31 09:04:05;;;;;;;7.28;1.23;;;5.40;99.90;;;;;;4907342;29;20043;-79
2022/01/31 09:06:35;;;;;;;7.18;1.20;;;5.30;99.90;;;;;;4900116;29;20059;-83
2022/01/31 09:09:05;;;;;;;7.18;1.00;;;5.20;99.90;;;;;;4900812;29;20127;-83
2022/01/31 09:11:31;;;;;;;7.18;1.08;;;5.50;99.90;;;;;;4904544;29;20040;-83
2022/01/31 09:13:59;;;;;;;6.38;1.40;;;5.50;99.90;;;;;;4899320;29;20052;-83
2022/01/31 09:16:24;;;;;;;6.32;1.02;;;5.70;99.90;;;;;;4882149;29;20040;-83
2022/01/31 09:18:50;;;;;;;13.05;1.80;;;5.80;99.90;;;;;;4921426;29;20051;-83
2022/01/31 09:21:17;;;;;;;11.95;1.70;;;5.90;99.90;;;;;;4902214;29;20087;-83
2022/01/31 09:23:43;;;;;;;9.13;1.45;;;5.70;99.90;;;;;;4898621;29;20087;-85
2022/01/31 09:26:09;;;;;;;5.97;1.73;;;5.90;99.90;;;;;;4892073;29;20036;-85
2022/01/31 09:28:36;;;;;;;;;;;6.00;99.90;;;;;;4901589;29;20032;-79
2022/01/31 09:31:02;;;;;;;8.30;1.05;;;6.00;99.90;;;;;;4916916;29;20073;-85
2022/01/31 09:33:28;;;;;;;;;;;6.00;99.90;;;;;;4902965;29;20047;-84
2022/01/31 09:35:54;;;;;;;6.75;1.02;;;6.10;99.90;;;;;;4886735;29;19919;-84
2022/01/31 09:38:23;;;;;;;8.90;1.35;;;6.10;99.90;;;;;;4902079;29;20063;-85
2022/01/31 09:40:52;;;;;;;5.88;0.98;;;5.90;99.90;;;;;;4885682;29;20047;-85
2022/01/31 09:48:33;;;;;;;6.85;0.98;;;6.10;99.90;;;;;;4911043;29;20104;-87
2022/01/31 09:51:01;;;;;;;4.65;0.93;;;6.10;99.90;;;;;;4918756;29;20048;-86
2022/01/31 09:53:30;;;;;;;7.78;1.20;;;6.10;99.90;;;;;;4904056;29;20020;-88
2022/01/31 09:55:56;;;;;;;7.88;1.40;;;6.10;99.90;;;;;;4888555;29;20040;-88
2022/01/31 09:58:24;;;;;;;12.82;1.30;;;6.10;99.90;;;;;;4887879;29;20090;-86
2022/01/31 10:01:20;;;;;;;11.15;1.55;;;6.30;99.90;;;;;;4903391;29;20115;-85
2022/01/31 10:03:49;;;;;;;10.10;1.45;;;6.30;99.90;;;;;;4901698;29;20063;-87
2022/01/31 10:06:21;;;;;;;8.68;1.50;;;6.40;99.90;;;;;;4897855;29;20136;-87
2022/01/31 10:08:58;;;;;;;13.77;1.70;;;6.50;99.90;;;;;;4894843;29;20020;-87
2022/01/31 10:11:30;;;;;;;8.30;1.38;;;6.60;99.90;;;;;;4894515;29;20032;-87
2022/01/31 10:17:02;;;;;;;10.98;1.60;;;6.60;99.90;;;;;;4913917;29;20040;-85
2022/01/31 10:19:28;;;;;;;10.70;1.73;;;6.80;99.90;;;;;;4915696;29;20471;-86
2022/01/31 10:22:07;;;;;;;9.65;1.70;;;6.80;99.90;;;;;;4879238;29;20123;-86
2022/01/31 10:24:34;;;;;;;11.88;1.80;;;6.90;99.90;;;;;;4898791;29;20044;-87
2022/01/31 10:27:26;;;;;;;10.82;1.63;;;7.00;99.90;;;;;;4903691;29;20040;-86
2022/01/31 10:29:54;;;;;;;10.98;1.92;;;7.30;99.90;;;;;;4898400;29;20051;-87
2022/01/31 10:32:29;;;;;;;10.80;1.95;;;7.20;99.90;;;;;;4887058;29;20040;-87
2022/01/31 10:34:59;;;;;;;14.02;1.75;;;7.20;99.90;;;;;;4888011;29;20052;-87
2022/01/31 10:37:26;;;;;;;17.60;2.28;;;7.10;99.90;;;;;;4918566;29;20044;-87
2022/01/31 10:53:49;;;;;;;7.72;1.52;;;7.20;99.90;;;;;;4922593;29;20040;-86
2022/01/31 10:56:16;;;;;;;14.27;1.80;;;7.10;99.90;;;;;;4904280;29;20055;-86
2022/01/31 10:59:13;;;;;;;7.68;1.30;;;7.20;99.90;;;;;;4921615;29;20080;-87
2022/01/31 11:01:40;;;;;;;11.18;2.20;;;7.40;99.90;;;;;;4903543;29;20504;-87
2022/01/31 11:04:14;;;;;;;12.40;1.98;;;7.50;99.90;;;;;;4909022;29;20403;-87
2022/01/31 11:06:41;;;;;;;12.90;1.90;;;7.60;99.90;;;;;;4901734;29;20110;-84
2022/01/31 11:09:15;;;;;;;14.02;2.33;;;7.60;99.90;;;;;;4889493;29;20449;-87
2022/01/31 11:11:49;;;;;;;13.98;2.10;;;7.70;99.90;;;;;;4903616;29;20036;-84
2022/01/31 11:14:15;;;;;;;12.73;2.30;;;7.70;99.90;;;;;;4904396;29;20036;-82
2022/01/31 11:16:44;;;;;;;12.40;1.88;;;7.60;99.90;;;;;;4904247;29;20036;-85
2022/01/31 11:19:11;;;;;;;10.30;1.92;;;7.50;99.90;;;;;;4920628;29;20054;-85
2022/01/31 11:21:44;;;;;;;12.18;1.92;;;7.70;99.90;;;;;;4889670;29;20043;-85
2022/01/31 11:24:22;;;;;;;15.23;2.42;;;8.10;99.90;;;;;;4921045;29;20051;-85
2022/01/31 11:26:51;;;;;;;13.18;2.72;;;8.40;99.90;;;;;;4905949;29;20048;-86
2022/01/31 11:29:18;;;;;;;15.23;3.08;;;8.60;99.90;;;;;;4906286;29;20040;-85
2022/01/31 11:31:44;;;;;;;12.23;2.47;;;8.70;99.90;;;;;;4876463;29;20504;-85
2022/01/31 11:34:11;;;;;;;16.35;2.45;;;8.80;99.90;;;;;;4908114;29;20040;-86
2022/01/31 11:36:39;;;;;;;13.38;2.40;;;8.90;99.90;;;;;;4875510;29;20220;-86
2022/01/31 11:39:10;;;;;;;13.43;2.35;;;8.70;99.90;;;;;;4905175;29;20059;-86
2022/01/31 11:41:46;;;;;;;15.95;2.72;;;8.60;99.90;;;;;;4906872;29;20473;-86
2022/01/31 11:44:49;;;;;;;20.05;3.17;;;8.50;99.90;;;;;;4913446;29;20048;-85
2022/01/31 11:47:21;;;;;;;19.05;2.88;;;8.30;99.90;;;;;;4909952;29;20087;-86
2022/01/31 11:49:59;;;;;;;16.52;2.20;;;8.50;99.90;;;;;;4889284;29;20048;-86
2022/01/31 11:52:29;;;;;;;15.75;2.47;;;8.40;99.90;;;;;;4913416;29;20055;-87
2022/01/31 11:55:01;;;;;;;13.32;2.58;;;8.20;99.90;;;;;;4905170;29;20040;-87
2022/01/31 11:57:32;;;;;;;17.92;2.67;;;7.90;99.90;;;;;;4905412;29;20037;-87
2022/01/31 12:00:10;;;;;;;16.05;2.70;;;7.90;99.90;;;;;;4905276;29;20040;-87
2022/01/31 12:02:44;;;;;;;14.05;2.20;;;7.90;99.90;;;;;;4904424;29;20051;-82
2022/01/31 12:05:16;;;;;;;18.00;2.58;;;8.00;99.90;;;;;;4900661;29;20063;-82
2022/01/31 12:07:44;;;;;;;13.73;2.10;;;8.00;99.90;;;;;;4884346;29;20118;-82
2022/01/31 12:10:23;;;;;;;18.00;3.05;;;8.10;99.90;;;;;;4884611;29;20047;-83
2022/01/31 12:13:10;;;;;;;17.25;2.83;;;8.10;99.90;;;;;;4901591;29;20040;-83
2022/01/31 12:23:54;;;;;;;18.52;2.80;;;8.20;99.90;;;;;;4917955;29;20052;-82
2022/01/31 12:26:52;;;;;;;11.90;2.30;;;8.10;99.90;;;;;;4902611;29;20139;-83
2022/01/31 12:29:21;;;;;;;15.52;2.90;;;8.10;99.90;;;;;;4885430;29;20052;-82
2022/01/31 12:31:55;;;;;;;15.50;2.75;;;8.30;99.90;;;;;;4902252;29;20099;-82
2022/01/31 12:34:21;;;;;;;15.27;2.47;;;8.30;99.90;;;;;;4903037;29;20083;-81
2022/01/31 12:36:53;;;;;;;13.80;2.20;;;8.20;99.90;;;;;;4902331;29;20436;-83
2022/01/31 12:39:31;;;;;;;13.30;2.28;;;8.10;99.90;;;;;;4918369;29;20079;-83
2022/01/31 12:42:03;;;;;;;16.67;2.58;;;8.00;99.90;;;;;;4897165;29;20075;-83
2022/01/31 12:44:29;;;;;;;16.60;2.88;;;8.10;99.90;;;;;;4872185;29;20092;-83
2022/01/31 12:47:05;;;;;;;14.80;2.55;;;8.10;99.90;;;;;;4919030;29;20044;-83
2022/01/31 12:49:31;;;;;;;15.15;2.53;;;8.10;99.90;;;;;;4918173;29;20044;-83
2022/01/31 12:52:04;;;;;;;15.70;2.50;;;8.20;99.90;;;;;;4886666;29;20131;-83
2022/01/31 12:54:30;;;;;;;18.10;2.33;;;8.10;99.90;;;;;;4925155;29;20063;-84
2022/01/31 12:57:10;;;;;;;15.00;2.15;;;8.10;99.90;;;;;;4885728;29;20751;-83
2022/01/31 12:59:39;;;;;;;13.73;2.50;;;8.10;99.90;;;;;;4902329;29;20048;-84
2022/01/31 13:02:10;;;;;;;14.27;2.50;;;8.10;99.90;;;;;;4902507;29;20048;-83
2022/01/31 13:04:37;;;;;;;14.60;2.70;;;8.00;99.90;;;;;;4903448;29;20056;-82
2022/01/31 13:07:09;;;;;;;12.85;2.05;;;7.80;99.90;;;;;;4887120;29;20166;-83
2022/01/31 13:09:37;;;;;;;19.08;2.50;;;7.80;99.90;;;;;;4918268;29;20048;-83
2022/01/31 13:12:06;;;;;;;10.98;2.28;;;7.70;99.90;;;;;;4902421;29;20048;-82
2022/01/31 13:14:38;;;;;;;18.10;2.60;;;7.80;99.90;;;;;;4902559;29;20091;-82
2022/01/31 13:17:14;;;;;;;18.90;2.50;;;7.70;99.90;;;;;;4902441;29;20040;-82
2022/01/31 13:19:52;;;;;;;15.05;2.95;;;7.80;99.90;;;;;;4928555;29;20103;-83
2022/01/31 13:22:35;;;;;;;16.80;2.78;;;7.70;99.90;;;;;;4902077;29;20044;-83
2022/01/31 13:25:15;;;;;;;14.65;2.63;;;7.70;99.90;;;;;;4902476;29;20044;-83
2022/01/31 13:27:43;;;;;;;17.50;2.38;;;7.80;99.90;;;;;;4901738;29;20051;-83
2022/01/31 13:30:16;;;;;;;13.60;2.22;;;7.80;99.90;;;;;;4902554;29;20040;-82
2022/01/31 13:32:41;;;;;;;19.85;2.30;;;7.90;99.90;;;;;;4901889;29;20075;-83
2022/01/31 13:35:14;;;;;;;16.63;2.45;;;7.80;99.90;;;;;;4917386;29;20052;-82
2022/01/31 13:37:58;;;;;;;19.77;2.83;;;7.90;99.90;;;;;;4901296;29;20043;-82